Time;durP1;ratioP1;P1;durP2;ratioP2;P2;SDS_P1;SDS_P2;PMS_P1;PMS_P2;Temp;Humidity;BMP_temperature;BMP_pressure;BME280_temperature;BME280_humidity;BME280_pressure;Samples;Min_cycle;Max_cycle;Signal;HPM_P1;HPM_P2
2023/01/26 00:01:28;;;;;;;10.70;4.82;;;6.10;93.30;;;;;;7396388;19;19914;-73
2023/01/26 00:03:56;;;;;;;11.73;5.75;;;6.10;93.20;;;;;;7402532;19;20595;-74
2023/01/26 00:06:22;;;;;;;10.82;5.85;;;6.10;93.20;;;;;;7400191;19;19925;-75
2023/01/26 00:08:51;;;;;;;11.02;5.32;;;6.10;93.10;;;;;;7403852;19;19944;-72
2023/01/26 00:11:28;;;;;;;10.82;5.50;;;6.10;93.20;;;;;;7400605;19;19936;-74
2023/01/26 00:13:55;;;;;;;13.05;5.10;;;6.00;93.30;;;;;;7399976;19;19915;-74
2023/01/26 00:16:22;;;;;;;10.77;4.80;;;6.00;93.30;;;;;;7402772;19;19918;-73
2023/01/26 00:18:48;;;;;;;11.55;5.20;;;6.00;93.30;;;;;;7401366;19;19923;-74
2023/01/26 00:21:16;;;;;;;7.97;4.20;;;6.00;93.10;;;;;;7368539;19;19929;-74
2023/01/26 00:23:42;;;;;;;11.00;4.88;;;6.10;93.00;;;;;;7382095;19;19915;-72
2023/01/26 00:26:12;;;;;;;8.27;4.18;;;6.10;93.00;;;;;;7402633;19;20259;-72
2023/01/26 00:28:37;;;;;;;8.60;3.92;;;6.10;93.10;;;;;;7401653;19;19979;-72
2023/01/26 00:31:06;;;;;;;13.50;5.90;;;6.00;93.20;;;;;;7399887;19;19998;-73
2023/01/26 00:33:32;;;;;;;11.73;4.53;;;5.90;93.40;;;;;;7400680;19;19929;-73
2023/01/26 00:35:58;;;;;;;11.93;5.30;;;5.90;93.40;;;;;;7402708;19;19974;-72
2023/01/26 00:38:25;;;;;;;9.48;4.38;;;5.90;93.30;;;;;;7399876;19;19935;-73
2023/01/26 00:40:50;;;;;;;10.63;5.63;;;5.90;93.40;;;;;;7403897;19;20015;-73
2023/01/26 00:43:16;;;;;;;9.85;5.28;;;5.80;93.50;;;;;;7407590;19;19915;-73
2023/01/26 00:45:43;;;;;;;10.73;5.22;;;5.80;93.50;;;;;;7409792;19;19914;-72
2023/01/26 00:48:08;;;;;;;11.70;5.35;;;5.70;93.50;;;;;;7407067;19;19922;-72
2023/01/26 00:50:34;;;;;;;11.27;5.35;;;5.80;93.50;;;;;;7384450;19;19938;-73
2023/01/26 00:53:00;;;;;;;12.07;5.65;;;5.80;93.50;;;;;;7409412;19;20402;-73
2023/01/26 00:55:31;;;;;;;11.23;5.40;;;5.80;93.30;;;;;;7408697;19;19923;-73
2023/01/26 00:58:09;;;;;;;9.35;4.45;;;5.80;93.50;;;;;;7408343;19;19982;-73
2023/01/26 01:00:36;;;;;;;11.20;5.32;;;5.70;93.50;;;;;;7406265;19;19926;-73
2023/01/26 01:03:04;;;;;;;9.50;4.78;;;5.70;93.40;;;;;;7407876;19;20407;-74
2023/01/26 01:05:31;;;;;;;11.07;4.30;;;5.70;93.70;;;;;;7408026;19;19982;-73
2023/01/26 01:07:57;;;;;;;9.43;3.95;;;5.70;93.50;;;;;;7410772;19;19995;-72
2023/01/26 01:10:23;;;;;;;11.65;5.20;;;5.60;93.60;;;;;;7407751;19;19923;-73
2023/01/26 01:12:49;;;;;;;11.40;5.40;;;5.70;93.40;;;;;;7409918;19;20240;-73
2023/01/26 01:15:15;;;;;;;9.27;4.85;;;5.60;93.50;;;;;;7407906;19;20330;-73
2023/01/26 01:17:41;;;;;;;10.32;4.90;;;5.60;93.50;;;;;;7406183;19;19989;-72
2023/01/26 01:20:09;;;;;;;9.02;4.53;;;5.50;93.50;;;;;;7405428;19;19922;-73
2023/01/26 01:22:35;;;;;;;10.48;4.85;;;5.60;93.60;;;;;;7409751;19;19957;-73
2023/01/26 01:25:02;;;;;;;11.80;5.20;;;5.60;93.60;;;;;;7410163;19;20403;-71
2023/01/26 01:27:29;;;;;;;9.57;4.25;;;5.60;93.40;;;;;;7405776;19;19942;-72
2023/01/26 01:29:55;;;;;;;10.23;4.50;;;5.60;93.40;;;;;;7403585;19;19926;-73
2023/01/26 01:32:21;;;;;;;9.82;4.07;;;5.50;93.40;;;;;;7406665;19;19921;-73
2023/01/26 01:34:48;;;;;;;12.15;4.68;;;5.60;93.50;;;;;;7407040;19;19923;-73
2023/01/26 01:37:15;;;;;;;11.90;4.70;;;5.60;93.50;;;;;;7407393;19;19922;-71
2023/01/26 01:39:41;;;;;;;10.00;4.55;;;5.50;93.60;;;;;;7409668;19;19927;-72
2023/01/26 01:42:07;;;;;;;9.70;4.22;;;5.40;93.70;;;;;;7407276;19;19921;-72
2023/01/26 01:44:37;;;;;;;10.80;3.90;;;5.40;93.80;;;;;;7407732;19;20280;-72
2023/01/26 01:47:10;;;;;;;10.82;4.72;;;5.40;93.90;;;;;;7407103;19;20265;-72
2023/01/26 01:49:43;;;;;;;10.00;4.63;;;5.50;93.80;;;;;;7407934;19;19922;-73
2023/01/26 01:52:13;;;;;;;11.35;5.00;;;5.40;93.70;;;;;;7406380;19;19918;-73
2023/01/26 01:55:00;;;;;;;12.75;4.50;;;5.40;93.60;;;;;;7369686;19;19925;-72
2023/01/26 01:57:43;;;;;;;10.35;5.03;;;5.40;93.70;;;;;;7405464;19;19922;-73
2023/01/26 02:00:16;;;;;;;12.20;5.68;;;5.50;93.60;;;;;;7405272;19;19937;-73
2023/01/26 02:05:56;;;;;;;12.05;5.05;;;5.60;93.50;;;;;;7407805;19;19929;-74
2023/01/26 02:08:30;;;;;;;10.63;5.18;;;5.50;93.40;;;;;;7403972;19;19911;-73
2023/01/26 02:11:01;;;;;;;9.90;4.05;;;5.60;93.40;;;;;;7403977;19;19918;-73
2023/01/26 02:13:28;;;;;;;11.38;5.50;;;5.60;93.50;;;;;;7406370;19;19914;-73
2023/01/26 02:15:54;;;;;;;10.60;5.25;;;5.60;93.40;;;;;;7407750;19;20262;-72
2023/01/26 02:18:20;;;;;;;12.15;5.28;;;5.70;93.30;;;;;;7397731;19;19915;-72
2023/01/26 02:20:50;;;;;;;10.38;5.03;;;5.70;93.30;;;;;;7405023;19;20582;-73
2023/01/26 02:23:25;;;;;;;14.65;5.65;;;5.70;93.40;;;;;;7402002;19;19955;-74
2023/01/26 02:25:56;;;;;;;12.63;5.90;;;5.70;93.30;;;;;;7404431;19;19923;-74
2023/01/26 02:28:25;;;;;;;10.88;5.57;;;5.70;93.40;;;;;;7404972;19;19915;-72
2023/01/26 02:30:53;;;;;;;11.45;5.85;;;5.70;93.60;;;;;;7405658;19;20319;-73
2023/01/26 02:33:27;;;;;;;12.27;5.80;;;5.70;93.70;;;;;;7405029;19;20386;-73
2023/01/26 02:35:53;;;;;;;12.02;5.93;;;5.60;93.80;;;;;;7385087;19;19922;-73
2023/01/26 02:38:22;;;;;;;14.23;6.00;;;5.50;94.00;;;;;;7404237;19;20254;-72
2023/01/26 02:41:11;;;;;;;12.27;5.88;;;5.40;94.00;;;;;;7404381;19;20270;-73
2023/01/26 02:43:37;;;;;;;13.35;6.53;;;5.40;94.10;;;;;;7406904;19;19906;-72
2023/01/26 02:46:03;;;;;;;11.70;5.32;;;5.50;94.20;;;;;;7403338;19;19991;-73
2023/01/26 02:51:15;;;;;;;14.63;5.88;;;5.50;93.80;;;;;;7383185;19;19950;-73
2023/01/26 02:53:41;;;;;;;11.15;5.95;;;5.60;93.60;;;;;;7406490;19;19919;-72
2023/01/26 02:56:07;;;;;;;10.55;5.78;;;5.60;93.60;;;;;;7403826;19;19919;-73
2023/01/26 02:58:33;;;;;;;11.93;5.85;;;5.70;93.50;;;;;;7404416;19;19923;-72
2023/01/26 03:00:58;;;;;;;11.27;5.45;;;5.70;93.50;;;;;;7401672;19;19925;-73
2023/01/26 03:03:40;;;;;;;10.75;5.13;;;5.70;93.40;;;;;;7402460;19;19954;-73
2023/01/26 03:06:08;;;;;;;12.45;5.60;;;5.70;93.40;;;;;;7403813;19;19918;-73
2023/01/26 03:08:34;;;;;;;13.35;5.45;;;5.60;93.60;;;;;;7405064;19;19972;-73
2023/01/26 03:11:00;;;;;;;11.48;5.53;;;5.60;93.60;;;;;;7405171;19;19918;-73
2023/01/26 03:13:25;;;;;;;11.68;5.82;;;5.50;93.50;;;;;;7403166;19;19938;-72
2023/01/26 03:15:53;;;;;;;11.32;5.40;;;5.40;93.80;;;;;;7406326;19;20249;-72
2023/01/26 03:29:20;;;;;;;12.00;5.72;;;5.50;93.60;;;;;;7402239;19;19926;-73
2023/01/26 03:31:46;;;;;;;11.30;5.82;;;5.40;93.70;;;;;;7406135;19;19914;-74
2023/01/26 03:34:12;;;;;;;12.45;4.70;;;5.40;93.70;;;;;;7371254;19;19925;-73
2023/01/26 03:36:38;;;;;;;11.88;5.38;;;5.40;93.60;;;;;;7403917;19;20259;-74
2023/01/26 03:39:04;;;;;;;10.75;4.50;;;5.40;93.50;;;;;;7403067;19;19923;-72
2023/01/26 03:57:57;;;;;;;8.98;4.40;;;5.30;93.70;;;;;;7402714;19;19929;-73
2023/01/26 04:00:25;;;;;;;8.77;3.97;;;5.30;93.70;;;;;;7399986;19;20493;-72
2023/01/26 04:08:19;;;;;;;10.05;4.40;;;5.20;93.70;;;;;;7371182;19;19945;-73
2023/01/26 04:10:45;;;;;;;11.20;4.18;;;5.20;93.80;;;;;;7401475;19;19911;-72
2023/01/26 04:21:32;;;;;;;7.70;3.53;;;5.00;94.20;;;;;;7372253;19;19954;-73
2023/01/26 04:23:58;;;;;;;9.38;4.25;;;5.00;94.20;;;;;;7400195;19;20067;-72
2023/01/26 04:26:26;;;;;;;8.88;3.83;;;5.10;94.20;;;;;;7369394;19;19907;-72
2023/01/26 04:28:52;;;;;;;10.38;4.50;;;5.10;94.20;;;;;;7402101;19;19951;-74
2023/01/26 04:31:18;;;;;;;8.65;3.83;;;5.10;94.20;;;;;;7399571;19;19922;-71
2023/01/26 04:33:44;;;;;;;8.13;3.97;;;5.00;94.20;;;;;;7400679;19;19911;-73
2023/01/26 04:36:10;;;;;;;9.40;4.00;;;5.10;94.00;;;;;;7400612;19;19939;-74
2023/01/26 04:38:36;;;;;;;9.45;4.35;;;5.20;93.90;;;;;;7369657;19;19918;-73
2023/01/26 04:41:03;;;;;;;8.93;3.97;;;5.10;94.10;;;;;;7349037;19;19919;-73
2023/01/26 04:43:29;;;;;;;7.85;3.95;;;5.10;94.10;;;;;;7402260;19;19920;-73
2023/01/26 04:46:03;;;;;;;10.27;4.47;;;5.20;93.80;;;;;;7400216;19;19914;-73
2023/01/26 04:48:30;;;;;;;7.95;3.97;;;5.20;93.70;;;;;;7400476;19;19922;-73
2023/01/26 04:50:58;;;;;;;8.32;4.30;;;5.20;93.50;;;;;;7401701;19;20255;-73
2023/01/26 04:53:24;;;;;;;9.52;4.38;;;5.20;93.60;;;;;;7402130;19;19926;-74
2023/01/26 04:55:50;;;;;;;9.23;3.45;;;5.20;93.70;;;;;;7403313;19;19922;-73
2023/01/26 04:58:16;;;;;;;9.07;4.32;;;5.20;93.80;;;;;;7401365;19;19918;-72
2023/01/26 05:00:42;;;;;;;8.63;3.65;;;5.20;93.90;;;;;;7401648;19;19937;-72
2023/01/26 05:03:08;;;;;;;9.70;4.30;;;5.10;94.00;;;;;;7398710;19;20262;-73
2023/01/26 05:05:38;;;;;;;8.98;3.95;;;5.10;94.00;;;;;;7402285;19;19927;-73
2023/01/26 05:08:05;;;;;;;10.70;4.20;;;5.10;94.10;;;;;;7397465;19;19928;-73
2023/01/26 05:10:32;;;;;;;9.85;4.50;;;5.10;94.30;;;;;;7400041;19;19946;-72
2023/01/26 05:12:58;;;;;;;9.48;4.63;;;5.10;94.20;;;;;;7403071;19;20010;-73
2023/01/26 05:15:24;;;;;;;6.85;3.22;;;5.10;94.10;;;;;;7398815;19;19919;-73
2023/01/26 05:17:50;;;;;;;9.18;3.78;;;5.10;94.00;;;;;;7401927;19;19935;-72
2023/01/26 05:20:16;;;;;;;8.52;3.40;;;5.10;94.10;;;;;;7398405;19;20291;-73
2023/01/26 05:22:42;;;;;;;8.02;3.60;;;5.10;94.00;;;;;;7403026;19;19926;-72
2023/01/26 05:25:09;;;;;;;8.77;4.18;;;5.10;94.00;;;;;;7402497;19;19960;-72
2023/01/26 05:27:35;;;;;;;9.48;4.65;;;5.10;94.00;;;;;;7405552;19;19957;-73
2023/01/26 05:30:01;;;;;;;8.88;4.50;;;5.00;94.10;;;;;;7405815;19;20003;-72
2023/01/26 05:32:28;;;;;;;8.88;4.22;;;5.00;94.20;;;;;;7407061;19;19922;-72
2023/01/26 05:34:54;;;;;;;;;;;5.00;94.40;;;;;;7412159;19;19922;-72
2023/01/26 05:37:20;;;;;;;8.57;4.13;;;4.90;94.50;;;;;;7409135;19;19925;-72
2023/01/26 05:39:46;;;;;;;9.95;4.82;;;4.90;94.70;;;;;;7408331;19;19923;-72
2023/01/26 05:42:12;;;;;;;8.98;3.30;;;4.90;94.80;;;;;;7405215;19;19922;-72
2023/01/26 05:44:39;;;;;;;9.98;4.50;;;4.80;94.90;;;;;;7409039;19;19914;-73
2023/01/26 05:47:06;;;;;;;7.80;3.53;;;4.80;95.10;;;;;;7408403;19;19919;-73
2023/01/26 05:49:31;;;;;;;8.45;4.25;;;4.80;95.20;;;;;;7405874;19;20342;-72
2023/01/26 05:51:57;;;;;;;9.55;4.50;;;4.80;95.30;;;;;;7406643;19;19929;-72
2023/01/26 05:54:23;;;;;;;7.95;3.92;;;4.70;95.40;;;;;;7371393;19;19989;-72
2023/01/26 05:56:49;;;;;;;10.68;4.18;;;4.70;95.60;;;;;;7385703;19;19910;-72
2023/01/26 05:59:15;;;;;;;10.10;4.57;;;4.70;95.70;;;;;;7406351;19;19923;-72
2023/01/26 06:01:41;;;;;;;10.10;4.18;;;4.60;95.70;;;;;;7408947;19;19918;-73
2023/01/26 06:04:07;;;;;;;9.52;4.72;;;4.70;95.60;;;;;;7403985;19;19997;-73
2023/01/26 06:06:33;;;;;;;9.30;4.15;;;4.70;95.50;;;;;;7408217;19;19915;-72
2023/01/26 06:08:59;;;;;;;9.30;4.45;;;4.80;95.50;;;;;;7403345;19;19938;-72
2023/01/26 06:11:25;;;;;;;9.05;4.25;;;4.80;95.60;;;;;;7400261;19;20453;-73
2023/01/26 06:13:51;;;;;;;12.63;5.35;;;4.70;95.70;;;;;;7405789;19;19922;-73
2023/01/26 06:16:17;;;;;;;10.07;5.07;;;4.70;95.70;;;;;;7408548;19;19918;-73
2023/01/26 06:18:48;;;;;;;11.18;4.75;;;4.70;95.60;;;;;;7404885;19;19931;-72
2023/01/26 06:21:14;;;;;;;9.57;4.20;;;4.70;95.50;;;;;;7404608;19;19938;-72
2023/01/26 06:23:39;;;;;;;8.77;4.05;;;4.70;95.50;;;;;;7406574;19;19906;-72
2023/01/26 06:26:06;;;;;;;10.27;4.50;;;4.80;95.30;;;;;;7407260;19;19931;-72
2023/01/26 06:28:32;;;;;;;8.18;4.05;;;4.80;95.30;;;;;;7405185;19;19922;-72
2023/01/26 06:31:03;;;;;;;11.40;4.45;;;4.80;95.50;;;;;;7406280;19;19929;-73
2023/01/26 06:33:33;;;;;;;7.57;4.10;;;4.80;95.50;;;;;;7402502;19;19926;-74
2023/01/26 06:36:08;;;;;;;10.90;5.05;;;4.70;95.50;;;;;;7409109;19;19925;-72
2023/01/26 06:38:35;;;;;;;9.57;4.85;;;4.70;95.40;;;;;;7401782;19;19915;-73
2023/01/26 06:41:02;;;;;;;9.30;4.47;;;4.80;95.40;;;;;;7409690;19;19935;-73
2023/01/26 06:43:29;;;;;;;10.82;5.05;;;4.80;95.30;;;;;;7406611;19;19990;-72
2023/01/26 06:45:59;;;;;;;9.48;4.28;;;4.80;95.30;;;;;;7405151;19;20345;-72
2023/01/26 06:48:28;;;;;;;9.82;3.72;;;4.80;95.20;;;;;;7404904;19;20331;-73
2023/01/26 06:51:14;;;;;;;10.05;4.13;;;4.80;95.10;;;;;;7404337;19;19921;-74
2023/01/26 06:53:48;;;;;;;8.25;4.32;;;4.80;95.00;;;;;;7352823;19;20250;-73
2023/01/26 06:56:16;;;;;;;10.02;4.28;;;4.90;94.80;;;;;;7404788;19;19929;-73
2023/01/26 06:58:42;;;;;;;11.88;4.82;;;5.00;94.70;;;;;;7406920;19;19910;-72
2023/01/26 07:01:17;;;;;;;10.07;4.35;;;4.90;94.70;;;;;;7406223;19;19922;-73
2023/01/26 07:03:42;;;;;;;10.52;4.78;;;4.90;94.40;;;;;;7404991;19;20323;-74
2023/01/26 07:06:11;;;;;;;9.52;4.63;;;4.90;94.40;;;;;;7404348;19;19939;-73
2023/01/26 07:08:38;;;;;;;9.85;4.78;;;4.90;94.30;;;;;;7405858;19;19932;-73
2023/01/26 07:11:05;;;;;;;12.20;5.13;;;4.90;94.30;;;;;;7407464;19;19918;-72
2023/01/26 07:13:30;;;;;;;10.40;5.50;;;4.80;94.80;;;;;;7407116;19;19930;-73
2023/01/26 07:16:01;;;;;;;12.63;5.85;;;4.60;95.20;;;;;;7405838;19;19939;-73
2023/01/26 07:18:27;;;;;;;13.20;5.60;;;4.50;95.80;;;;;;7406142;19;19922;-73
2023/01/26 07:20:53;;;;;;;13.43;5.97;;;4.30;95.80;;;;;;7405405;19;19914;-73
2023/01/26 07:23:18;;;;;;;11.10;5.07;;;4.20;96.00;;;;;;7404345;19;19926;-73
2023/01/26 07:25:44;;;;;;;11.27;5.63;;;4.20;96.20;;;;;;7408001;19;19910;-73
2023/01/26 07:28:10;;;;;;;11.07;5.18;;;4.30;96.50;;;;;;7405189;19;20488;-73
2023/01/26 07:30:36;;;;;;;12.52;6.00;;;4.40;96.20;;;;;;7405157;19;19915;-72
2023/01/26 07:33:02;;;;;;;11.60;4.85;;;4.40;96.20;;;;;;7403498;19;19917;-74
2023/01/26 07:35:28;;;;;;;10.40;4.95;;;4.50;96.10;;;;;;7404255;19;19921;-72
2023/01/26 07:37:57;;;;;;;10.40;4.93;;;4.50;96.00;;;;;;7407200;19;20275;-73
2023/01/26 07:40:24;;;;;;;9.70;4.25;;;4.50;96.00;;;;;;7403654;19;19943;-72
2023/01/26 07:42:50;;;;;;;10.35;4.35;;;4.60;95.80;;;;;;7404317;19;19939;-73
2023/01/26 07:45:18;;;;;;;11.93;4.88;;;4.70;95.70;;;;;;7402117;19;19911;-73
2023/01/26 07:47:44;;;;;;;12.20;5.72;;;4.70;95.60;;;;;;7403828;19;19934;-73
2023/01/26 07:50:10;;;;;;;13.48;6.28;;;4.70;95.70;;;;;;7402863;19;20011;-74
2023/01/26 07:52:37;;;;;;;12.18;5.70;;;4.80;95.80;;;;;;7404209;19;20365;-72
2023/01/26 07:55:04;;;;;;;14.93;6.47;;;4.80;95.60;;;;;;7402175;19;19914;-73
2023/01/26 07:57:30;;;;;;;11.23;5.43;;;4.90;95.30;;;;;;7406356;19;19945;-72
2023/01/26 07:59:56;;;;;;;11.10;5.40;;;4.90;95.40;;;;;;7405583;19;19923;-73
2023/01/26 08:02:22;;;;;;;14.63;5.75;;;5.00;95.40;;;;;;7401939;19;19944;-73
2023/01/26 08:04:48;;;;;;;13.32;5.38;;;5.10;95.30;;;;;;7403040;19;19915;-72
2023/01/26 08:07:14;;;;;;;13.10;5.15;;;5.10;95.20;;;;;;7401945;19;20628;-73
2023/01/26 08:09:39;;;;;;;10.00;4.78;;;5.20;95.20;;;;;;7404046;19;19915;-72
2023/01/26 08:12:06;;;;;;;12.77;5.22;;;5.30;94.90;;;;;;7402855;19;19926;-73
2023/01/26 08:14:32;;;;;;;13.40;5.47;;;5.20;94.70;;;;;;7405270;19;19922;-73
2023/01/26 08:16:58;;;;;;;11.95;5.97;;;5.30;94.80;;;;;;7406669;19;19982;-74
2023/01/26 08:19:23;;;;;;;13.60;5.97;;;5.30;94.90;;;;;;7402244;19;20335;-73
2023/01/26 08:21:49;;;;;;;11.45;5.18;;;5.50;94.70;;;;;;7403108;19;19923;-74
2023/01/26 08:24:15;;;;;;;11.00;5.68;;;5.60;94.50;;;;;;7400906;19;19926;-75
2023/01/26 08:26:41;;;;;;;14.23;6.10;;;5.60;94.20;;;;;;7397355;19;19907;-74
2023/01/26 08:29:09;;;;;;;11.02;4.88;;;5.60;94.10;;;;;;7401749;19;19915;-73
2023/01/26 08:31:37;;;;;;;9.77;5.18;;;5.70;93.90;;;;;;7399558;19;19922;-74
2023/01/26 08:34:03;;;;;;;10.75;5.10;;;6.10;94.00;;;;;;7400402;19;20327;-73
2023/01/26 08:36:29;;;;;;;8.57;4.40;;;7.90;92.10;;;;;;7402431;19;19918;-73
2023/01/26 08:38:55;;;;;;;9.75;5.40;;;8.90;90.70;;;;;;7394871;19;19953;-74
2023/01/26 08:41:20;;;;;;;9.38;4.97;;;9.80;89.90;;;;;;7396524;19;20291;-73
2023/01/26 08:43:46;;;;;;;9.68;5.03;;;10.00;88.40;;;;;;7400618;19;19919;-73
2023/01/26 08:46:12;;;;;;;10.00;5.18;;;10.00;87.30;;;;;;7398100;19;19915;-73
2023/01/26 08:48:38;;;;;;;10.90;5.10;;;9.70;87.80;;;;;;7401878;19;20254;-73
2023/01/26 08:51:05;;;;;;;9.23;4.68;;;10.40;88.10;;;;;;7399227;19;19919;-73
2023/01/26 08:53:33;;;;;;;10.18;5.00;;;10.50;87.80;;;;;;7400661;19;19925;-73
2023/01/26 08:56:07;;;;;;;8.38;4.35;;;11.00;87.10;;;;;;7399962;19;19941;-73
2023/01/26 08:58:33;;;;;;;6.47;3.33;;;10.80;86.70;;;;;;7399942;19;19969;-74
2023/01/26 09:01:06;;;;;;;6.85;3.60;;;10.40;86.80;;;;;;7401913;19;19911;-74
2023/01/26 09:03:32;;;;;;;7.63;3.80;;;10.30;87.50;;;;;;7405528;19;20018;-75
2023/01/26 09:06:03;;;;;;;7.28;3.47;;;10.60;87.10;;;;;;7409025;19;19911;-73
2023/01/26 09:08:29;;;;;;;8.23;3.90;;;10.60;86.00;;;;;;7408340;19;20016;-74
2023/01/26 09:10:55;;;;;;;8.90;3.72;;;10.90;86.10;;;;;;7403208;19;20669;-73
2023/01/26 09:13:21;;;;;;;9.25;3.92;;;10.80;84.90;;;;;;7404164;19;19910;-73
2023/01/26 09:15:47;;;;;;;7.00;3.60;;;10.80;84.60;;;;;;7408353;19;20390;-74
2023/01/26 09:18:12;;;;;;;7.03;3.30;;;10.00;85.80;;;;;;7406656;19;20032;-74
2023/01/26 09:20:38;;;;;;;8.02;3.55;;;9.20;86.50;;;;;;7407519;19;20022;-73
2023/01/26 09:23:04;;;;;;;9.85;4.10;;;8.90;87.80;;;;;;7403791;19;19937;-75
2023/01/26 09:25:30;;;;;;;8.02;4.20;;;8.90;88.20;;;;;;7404501;19;19950;-73
2023/01/26 09:27:56;;;;;;;10.30;3.90;;;8.70;88.60;;;;;;7407487;19;19945;-74
2023/01/26 09:30:23;;;;;;;9.00;3.60;;;8.60;89.50;;;;;;7403143;19;19930;-72
2023/01/26 09:32:50;;;;;;;7.90;3.38;;;8.80;89.50;;;;;;7401104;19;19915;-73
2023/01/26 09:35:16;;;;;;;6.22;3.22;;;8.80;88.90;;;;;;7405164;19;19921;-74
2023/01/26 09:37:44;;;;;;;10.05;4.47;;;8.70;88.70;;;;;;7404122;19;19926;-74
2023/01/26 09:40:31;;;;;;;5.47;2.78;;;8.80;88.90;;;;;;7399038;19;19931;-74
2023/01/26 09:43:17;;;;;;;6.93;3.47;;;9.00;88.00;;;;;;7403088;19;20612;-73
2023/01/26 09:46:21;;;;;;;8.93;4.03;;;9.10;87.40;;;;;;7394069;19;19913;-72
2023/01/26 09:49:06;;;;;;;8.18;3.53;;;9.20;87.40;;;;;;7392655;19;19946;-74
2023/01/26 09:51:36;;;;;;;7.60;3.10;;;9.60;86.60;;;;;;7399472;19;19914;-73
2023/01/26 09:54:15;;;;;;;9.57;3.75;;;10.00;85.90;;;;;;7387220;19;19915;-74
2023/01/26 09:56:42;;;;;;;7.65;3.85;;;10.30;86.00;;;;;;7386988;19;19926;-74
2023/01/26 09:59:37;;;;;;;9.15;3.38;;;10.70;85.80;;;;;;7368401;19;19915;-74
2023/01/26 10:02:39;;;;;;;8.90;3.97;;;10.10;86.70;;;;;;7396555;19;19925;-74
2023/01/26 10:06:01;;;;;;;7.10;3.90;;;10.00;87.40;;;;;;7395462;19;19911;-73
2023/01/26 10:08:27;;;;;;;10.57;4.65;;;10.50;87.10;;;;;;7397951;19;19961;-74
2023/01/26 10:10:58;;;;;;;8.23;4.32;;;10.30;87.00;;;;;;7404538;19;19934;-74
2023/01/26 10:13:25;;;;;;;8.65;3.92;;;10.30;85.80;;;;;;7397287;19;19919;-74
2023/01/26 10:16:00;;;;;;;8.02;3.88;;;10.30;85.80;;;;;;7404236;19;19922;-74
2023/01/26 10:18:33;;;;;;;7.25;3.67;;;10.60;85.10;;;;;;7367261;19;19910;-73
2023/01/26 10:21:02;;;;;;;6.53;3.75;;;9.70;86.10;;;;;;7406257;19;19930;-73
2023/01/26 10:23:30;;;;;;;6.18;3.28;;;10.20;85.80;;;;;;7371902;19;19914;-74
2023/01/26 10:26:20;;;;;;;7.10;3.33;;;10.20;85.80;;;;;;7399872;19;20082;-73
2023/01/26 10:28:51;;;;;;;6.75;3.42;;;10.60;84.90;;;;;;7400911;19;19921;-74
2023/01/26 10:31:24;;;;;;;6.38;3.00;;;10.70;84.20;;;;;;7399322;19;19919;-75
2023/01/26 10:34:18;;;;;;;5.65;3.22;;;10.70;83.60;;;;;;7401528;19;19918;-73
2023/01/26 10:36:45;;;;;;;7.05;3.65;;;11.10;82.80;;;;;;7402187;19;19914;-72
2023/01/26 10:39:13;;;;;;;8.25;3.63;;;11.60;82.60;;;;;;7382306;19;20308;-74
2023/01/26 10:41:39;;;;;;;6.97;3.53;;;11.70;81.90;;;;;;7395659;19;19925;-74
2023/01/26 10:44:29;;;;;;;8.60;4.00;;;11.50;81.80;;;;;;7402039;19;20406;-75
2023/01/26 10:47:15;;;;;;;6.43;3.45;;;11.30;82.00;;;;;;7403283;19;19933;-74
2023/01/26 10:49:41;;;;;;;6.43;3.30;;;12.00;82.20;;;;;;7405853;19;19911;-73
2023/01/26 10:52:21;;;;;;;5.38;2.70;;;12.40;81.50;;;;;;7405334;19;19929;-73
2023/01/26 10:54:50;;;;;;;6.72;2.92;;;12.50;80.30;;;;;;7404808;19;19923;-74
2023/01/26 10:57:28;;;;;;;6.63;3.08;;;12.70;80.80;;;;;;7403518;19;19926;-73
2023/01/26 11:00:20;;;;;;;12.25;3.28;;;13.20;80.10;;;;;;7406724;19;19918;-73
2023/01/26 11:02:54;;;;;;;5.82;3.08;;;13.00;80.10;;;;;;7404447;19;19978;-75
2023/01/26 11:05:25;;;;;;;6.53;3.35;;;12.70;79.40;;;;;;7403868;19;19914;-73
2023/01/26 11:08:01;;;;;;;7.95;3.45;;;12.80;79.50;;;;;;7406732;19;19923;-73
2023/01/26 11:10:28;;;;;;;9.65;3.60;;;12.80;79.90;;;;;;7389044;19;19914;-74
2023/01/26 11:13:21;;;;;;;7.15;3.30;;;13.50;79.20;;;;;;7393999;19;19958;-75
2023/01/26 11:16:02;;;;;;;6.10;3.10;;;13.00;79.30;;;;;;7401390;19;19938;-74
2023/01/26 11:18:45;;;;;;;6.10;3.38;;;13.30;78.90;;;;;;7393164;19;19946;-74
2023/01/26 11:21:26;;;;;;;6.82;3.22;;;14.00;78.50;;;;;;7398612;19;19927;-73
2023/01/26 11:24:01;;;;;;;6.75;3.15;;;14.40;77.20;;;;;;7391944;19;19978;-73
2023/01/26 11:26:58;;;;;;;6.45;3.13;;;13.70;76.10;;;;;;7400490;19;19919;-77
2023/01/26 11:29:52;;;;;;;5.20;3.05;;;14.00;76.70;;;;;;7400628;19;19922;-75
2023/01/26 11:32:49;;;;;;;6.32;3.50;;;14.70;76.10;;;;;;7395627;19;19926;-73
2023/01/26 11:35:26;;;;;;;;;;;14.90;75.00;;;;;;7398642;19;20239;-76
2023/01/26 11:38:26;;;;;;;7.10;3.72;;;14.90;76.00;;;;;;7396182;19;19948;-73
2023/01/26 11:41:07;;;;;;;6.82;3.65;;;14.30;76.30;;;;;;7401968;19;19919;-73
2023/01/26 11:43:51;;;;;;;8.93;3.72;;;14.50;76.20;;;;;;7395292;19;19911;-73
2023/01/26 11:46:35;;;;;;;6.60;4.22;;;14.60;75.90;;;;;;7396344;19;19911;-74
2023/01/26 11:49:26;;;;;;;7.93;4.53;;;15.50;76.30;;;;;;7401774;19;19934;-73
2023/01/26 11:52:07;;;;;;;;;;;16.10;75.90;;;;;;7395744;19;19914;-74
2023/01/26 11:54:54;;;;;;;8.05;4.35;;;15.30;74.90;;;;;;7397992;19;19956;-73
2023/01/26 11:57:29;;;;;;;7.60;4.10;;;15.40;76.10;;;;;;7397048;19;19948;-74
2023/01/26 12:00:05;;;;;;;6.75;4.03;;;16.30;74.40;;;;;;7401019;19;20239;-74
2023/01/26 12:02:36;;;;;;;10.38;4.70;;;16.40;74.30;;;;;;7402241;19;20335;-74
2023/01/26 12:05:14;;;;;;;7.28;4.28;;;16.70;73.40;;;;;;7397866;19;19918;-74
2023/01/26 12:08:20;;;;;;;7.50;4.35;;;16.40;73.70;;;;;;7398455;19;19918;-74
2023/01/26 12:11:21;;;;;;;7.68;4.82;;;16.80;73.30;;;;;;7397351;19;19927;-74
2023/01/26 12:13:58;;;;;;;6.60;4.50;;;16.10;73.50;;;;;;7394885;19;19947;-74
2023/01/26 12:16:41;;;;;;;9.25;4.18;;;17.40;72.50;;;;;;7397221;19;20241;-74
2023/01/26 12:19:22;;;;;;;5.80;3.50;;;17.20;71.90;;;;;;7392789;19;19919;-74
2023/01/26 12:21:49;;;;;;;6.10;3.83;;;16.60;71.90;;;;;;7398865;19;21120;-74
2023/01/26 12:24:29;;;;;;;7.13;4.50;;;16.50;72.10;;;;;;7403258;19;19946;-74
2023/01/26 12:26:55;;;;;;;6.95;4.43;;;16.60;72.20;;;;;;7401522;19;19923;-76
2023/01/26 12:29:53;;;;;;;6.53;4.78;;;16.70;72.00;;;;;;7402504;19;19914;-74
2023/01/26 12:32:21;;;;;;;6.05;3.97;;;17.50;71.90;;;;;;7386427;19;19918;-73
2023/01/26 12:34:47;;;;;;;7.15;4.63;;;17.90;71.50;;;;;;7393092;19;19934;-73
2023/01/26 12:37:31;;;;;;;6.78;4.57;;;17.40;70.90;;;;;;7376322;19;19907;-73
2023/01/26 12:40:15;;;;;;;9.13;4.70;;;17.10;71.40;;;;;;7398084;19;19918;-73
2023/01/26 12:43:00;;;;;;;5.60;3.78;;;15.70;71.90;;;;;;7401925;19;19942;-74
2023/01/26 12:45:34;;;;;;;;;;;16.60;72.60;;;;;;7400621;19;20520;-73
2023/01/26 12:48:55;;;;;;;9.60;4.38;;;17.70;70.90;;;;;;7399230;19;19919;-75
2023/01/26 12:51:28;;;;;;;8.60;4.63;;;17.30;71.50;;;;;;7395239;19;19932;-73
2023/01/26 12:54:03;;;;;;;9.18;6.47;;;18.80;70.00;;;;;;7404348;19;19961;-74
2023/01/26 12:56:35;;;;;;;7.70;4.32;;;18.80;69.60;;;;;;7397955;19;20009;-73
2023/01/26 12:59:12;;;;;;;8.30;4.07;;;19.20;68.20;;;;;;7401869;19;19950;-74
2023/01/26 13:01:40;;;;;;;8.90;4.93;;;18.60;68.90;;;;;;7393881;19;19921;-73
2023/01/26 13:04:15;;;;;;;10.52;4.85;;;17.50;68.60;;;;;;7401067;19;19910;-73
2023/01/26 13:06:41;;;;;;;8.30;5.25;;;17.10;70.60;;;;;;7403498;19;19986;-74
2023/01/26 13:09:24;;;;;;;7.00;4.57;;;17.20;69.70;;;;;;7406953;19;19970;-72
2023/01/26 13:11:58;;;;;;;8.15;4.55;;;16.70;71.40;;;;;;7408368;19;20351;-73
2023/01/26 13:14:41;;;;;;;10.55;5.22;;;17.10;70.70;;;;;;7402024;19;20244;-72
2023/01/26 13:17:16;;;;;;;8.43;4.68;;;18.10;69.90;;;;;;7406407;19;19955;-73
2023/01/26 13:19:42;;;;;;;9.90;6.13;;;18.70;69.80;;;;;;7407077;19;19914;-74
2023/01/26 13:22:39;;;;;;;12.82;6.75;;;19.70;70.10;;;;;;7406303;19;19942;-72
2023/01/26 13:25:30;;;;;;;9.73;7.07;;;20.60;68.90;;;;;;7404175;19;19919;-73
2023/01/26 13:28:11;;;;;;;11.32;6.53;;;20.40;68.50;;;;;;7406019;19;19943;-74
2023/01/26 13:30:45;;;;;;;12.18;6.93;;;21.50;68.00;;;;;;7372392;19;19947;-72
2023/01/26 13:33:13;;;;;;;11.55;6.90;;;22.10;66.80;;;;;;7405364;19;19922;-72
2023/01/26 13:35:41;;;;;;;11.30;7.05;;;21.90;66.50;;;;;;7405797;19;20014;-74
2023/01/26 13:38:37;;;;;;;13.10;7.30;;;22.20;66.40;;;;;;7406634;19;19923;-73
2023/01/26 13:41:26;;;;;;;13.63;7.57;;;21.30;66.50;;;;;;7405729;19;20385;-73
2023/01/26 13:43:58;;;;;;;12.55;7.60;;;21.30;67.00;;;;;;7406897;19;19923;-74
2023/01/26 13:46:38;;;;;;;15.05;8.80;;;21.70;66.90;;;;;;7406400;19;19923;-72
2023/01/26 13:49:04;;;;;;;14.55;8.48;;;21.90;66.90;;;;;;7399926;19;19915;-73
2023/01/26 13:51:32;;;;;;;11.98;7.75;;;22.00;66.50;;;;;;7405821;19;19959;-73
2023/01/26 13:54:14;;;;;;;13.10;8.00;;;22.00;66.40;;;;;;7406582;19;19942;-72
2023/01/26 13:56:42;;;;;;;11.93;7.55;;;20.30;67.40;;;;;;7405320;19;19923;-72
2023/01/26 13:59:14;;;;;;;13.15;7.82;;;20.00;68.50;;;;;;7402361;19;20343;-73